Time;durP1;ratioP1;P1;durP2;ratioP2;P2;SDS_P1;SDS_P2;PMS_P1;PMS_P2;Temp;Humidity;BMP_temperature;BMP_pressure;BME280_temperature;BME280_humidity;BME280_pressure;Samples;Min_cycle;Max_cycle;Signal;HPM_P1;HPM_P2
2021/12/13 00:02:53;;;;;;;15.35;6.55;;;7.10;99.90;;;;;;4987307;28;20042;-80
2021/12/13 00:05:27;;;;;;;;;;;7.10;99.90;;;;;;5000427;28;20045;-79
2021/12/13 00:08:00;;;;;;;17.45;7.35;;;7.10;99.90;;;;;;4997713;28;19913;-80
2021/12/13 00:10:33;;;;;;;16.60;6.45;;;7.10;99.90;;;;;;4998604;28;20053;-79
2021/12/13 00:13:07;;;;;;;11.48;5.10;;;7.10;99.90;;;;;;4998738;28;20026;-80
2021/12/13 00:15:43;;;;;;;12.60;6.22;;;7.00;99.90;;;;;;4997537;28;20075;-80
2021/12/13 00:18:17;;;;;;;14.57;5.57;;;6.90;99.90;;;;;;4995981;28;20099;-80
2021/12/13 00:20:48;;;;;;;11.65;4.78;;;6.90;99.90;;;;;;5000179;28;20399;-80
2021/12/13 00:23:37;;;;;;;12.25;4.80;;;6.90;99.90;;;;;;5009468;28;20036;-80
2021/12/13 00:26:05;;;;;;;11.30;4.93;;;6.90;99.90;;;;;;5003763;28;20030;-80
2021/12/13 00:28:37;;;;;;;11.98;4.60;;;6.80;99.90;;;;;;5001828;28;20022;-80
2021/12/13 00:31:38;;;;;;;11.98;4.95;;;6.80;99.90;;;;;;5001335;28;20025;-79
2021/12/13 00:34:38;;;;;;;10.95;4.80;;;6.70;99.90;;;;;;4994902;28;20427;-80
2021/12/13 00:37:11;;;;;;;10.00;4.55;;;6.80;99.90;;;;;;5001301;28;20060;-80
2021/12/13 00:39:59;;;;;;;12.95;5.32;;;6.70;99.90;;;;;;5002081;28;20072;-80
2021/12/13 00:42:32;;;;;;;10.80;4.75;;;6.80;99.90;;;;;;4999758;28;20372;-79
2021/12/13 00:45:03;;;;;;;9.82;5.57;;;6.80;99.90;;;;;;5001394;28;20040;-80
2021/12/13 00:47:32;;;;;;;13.80;5.85;;;6.80;99.90;;;;;;5004538;28;20859;-80
2021/12/13 00:50:21;;;;;;;15.93;6.22;;;6.80;99.90;;;;;;5002676;28;20372;-80
2021/12/13 00:52:49;;;;;;;8.98;5.18;;;6.70;99.90;;;;;;5000679;28;20159;-80
2021/12/13 00:55:22;;;;;;;13.98;5.63;;;6.70;99.90;;;;;;5000589;28;20073;-79
2021/12/13 00:58:09;;;;;;;12.68;6.03;;;6.60;99.90;;;;;;5002893;28;20038;-78
2021/12/13 01:01:00;;;;;;;13.80;5.78;;;6.60;99.90;;;;;;5000001;28;20174;-79
2021/12/13 01:03:37;;;;;;;12.75;5.43;;;6.60;99.90;;;;;;4997836;28;20146;-79
2021/12/13 01:06:40;;;;;;;11.70;5.13;;;6.60;99.90;;;;;;5001684;28;20085;-79
2021/12/13 01:09:21;;;;;;;12.70;5.30;;;6.60;99.90;;;;;;4995154;28;20095;-79
2021/12/13 01:12:00;;;;;;;11.30;5.30;;;6.60;99.90;;;;;;5002937;28;20040;-79
2021/12/13 01:14:33;;;;;;;11.35;4.82;;;6.50;99.90;;;;;;5004253;28;20040;-80
2021/12/13 01:17:26;;;;;;;11.50;5.10;;;6.50;99.90;;;;;;5019395;28;20041;-79
2021/12/13 01:20:07;;;;;;;14.68;5.43;;;6.40;99.90;;;;;;5006023;28;20113;-80
2021/12/13 01:22:50;;;;;;;15.55;6.28;;;6.40;99.90;;;;;;5004618;28;20064;-79
2021/12/13 01:28:26;;;;;;;16.75;6.65;;;6.50;99.90;;;;;;5004901;28;20680;-79
2021/12/13 01:30:56;;;;;;;13.15;5.82;;;6.30;99.90;;;;;;5004169;28;21675;-79
2021/12/13 01:33:25;;;;;;;11.93;5.72;;;6.10;99.90;;;;;;5004867;28;20041;-79
2021/12/13 01:35:55;;;;;;;16.77;5.75;;;6.20;99.90;;;;;;5007346;28;20053;-79
2021/12/13 01:38:35;;;;;;;12.18;5.18;;;6.30;99.90;;;;;;5006376;28;20041;-79
2021/12/13 01:41:08;;;;;;;17.48;6.32;;;6.30;99.90;;;;;;5003907;28;20026;-80
2021/12/13 01:43:39;;;;;;;17.52;6.90;;;6.40;99.90;;;;;;5004223;28;20046;-80
2021/12/13 01:46:05;;;;;;;14.95;5.88;;;6.30;99.90;;;;;;5004765;28;20045;-80
2021/12/13 01:48:40;;;;;;;12.77;5.45;;;6.30;99.90;;;;;;5004624;28;20092;-79
2021/12/13 01:51:11;;;;;;;14.32;5.70;;;6.30;99.90;;;;;;4998321;28;20032;-79
2021/12/13 01:53:58;;;;;;;13.02;5.57;;;6.30;99.90;;;;;;5005013;28;20036;-79
2021/12/13 01:56:53;;;;;;;9.32;4.82;;;6.30;99.90;;;;;;5009812;28;20045;-79
2021/12/13 02:02:21;;;;;;;8.57;4.68;;;6.30;99.90;;;;;;5006881;28;20446;-80
2021/12/13 02:05:02;;;;;;;11.15;4.82;;;6.20;99.90;;;;;;4998669;28;20042;-80
2021/12/13 02:07:45;;;;;;;13.80;5.40;;;6.20;99.90;;;;;;5007746;28;20117;-80
2021/12/13 02:10:49;;;;;;;10.60;5.18;;;6.10;99.90;;;;;;5015931;28;20679;-80
2021/12/13 02:13:37;;;;;;;15.27;5.63;;;6.10;99.90;;;;;;4981519;28;20085;-79
2021/12/13 02:18:52;;;;;;;11.23;4.85;;;5.80;99.90;;;;;;4991161;28;20049;-78
2021/12/13 02:21:29;;;;;;;11.63;5.53;;;5.90;99.90;;;;;;4990845;28;20068;-79
2021/12/13 02:24:06;;;;;;;12.10;4.97;;;5.90;99.90;;;;;;4990999;28;20042;-79
2021/12/13 02:26:34;;;;;;;10.68;5.03;;;5.90;99.90;;;;;;4991738;28;20022;-79
2021/12/13 02:29:14;;;;;;;13.45;4.85;;;5.90;99.90;;;;;;4974921;28;20069;-79
2021/12/13 02:31:41;;;;;;;8.43;4.68;;;5.90;99.90;;;;;;4991334;28;20035;-79
2021/12/13 02:34:11;;;;;;;11.15;4.97;;;6.00;99.90;;;;;;4987271;28;20096;-79
2021/12/13 02:36:44;;;;;;;9.95;4.55;;;6.00;99.90;;;;;;4987787;28;20501;-79
2021/12/13 02:39:14;;;;;;;9.20;4.40;;;6.00;99.90;;;;;;4985644;28;20046;-80
2021/12/13 02:41:40;;;;;;;11.75;4.90;;;6.10;99.90;;;;;;4983716;28;20034;-79
2021/12/13 02:44:30;;;;;;;11.50;4.63;;;6.10;99.90;;;;;;4976670;28;20030;-79
2021/12/13 02:46:59;;;;;;;12.50;4.90;;;6.10;99.90;;;;;;4984518;28;20050;-79
2021/12/13 02:49:25;;;;;;;10.88;4.28;;;6.00;99.90;;;;;;5004301;28;20046;-79
2021/12/13 02:51:55;;;;;;;8.68;4.13;;;6.00;99.90;;;;;;5013185;28;20052;-79
2021/12/13 02:54:23;;;;;;;9.55;4.50;;;6.00;99.90;;;;;;5010045;28;20056;-79
2021/12/13 02:56:58;;;;;;;9.75;4.40;;;5.90;99.90;;;;;;5003952;28;20435;-79
2021/12/13 02:59:30;;;;;;;12.48;4.53;;;5.80;99.90;;;;;;5003642;28;20025;-79
2021/12/13 03:02:21;;;;;;;9.40;4.85;;;5.70;99.90;;;;;;5007125;28;20479;-79
2021/12/13 03:04:49;;;;;;;10.68;4.72;;;5.70;99.90;;;;;;5004969;28;20603;-80
2021/12/13 03:07:23;;;;;;;11.13;5.07;;;5.70;99.90;;;;;;5011407;28;20030;-78
2021/12/13 03:09:53;;;;;;;8.98;4.45;;;5.60;99.90;;;;;;5012110;28;20160;-79
2021/12/13 03:12:22;;;;;;;8.20;4.50;;;5.60;99.90;;;;;;5008972;28;20030;-79
2021/12/13 03:14:51;;;;;;;9.32;4.78;;;5.60;99.90;;;;;;5004847;28;20494;-80
2021/12/13 03:17:26;;;;;;;9.32;4.38;;;5.60;99.90;;;;;;5002482;28;20026;-79
2021/12/13 03:20:24;;;;;;;11.98;5.35;;;5.60;99.90;;;;;;5007199;28;20053;-79
2021/12/13 03:23:13;;;;;;;10.13;5.55;;;5.60;99.90;;;;;;5007436;28;20031;-80
2021/12/13 03:25:50;;;;;;;10.90;5.22;;;5.60;99.90;;;;;;5008690;28;20034;-79
2021/12/13 03:28:34;;;;;;;13.20;6.28;;;5.60;99.90;;;;;;5005785;28;20022;-79
2021/12/13 03:31:05;;;;;;;8.60;4.80;;;5.40;99.90;;;;;;5011958;28;20045;-79
2021/12/13 03:33:51;;;;;;;9.93;5.93;;;5.20;99.90;;;;;;5009200;28;20030;-79
2021/12/13 03:36:23;;;;;;;13.65;5.55;;;5.30;99.90;;;;;;5007851;28;20025;-79
2021/12/13 03:38:54;;;;;;;15.75;6.93;;;5.20;99.90;;;;;;5005085;28;20022;-79
2021/12/13 03:41:23;;;;;;;23.55;12.15;;;5.20;99.90;;;;;;5002542;28;20014;-79
2021/12/13 03:43:58;;;;;;;14.25;7.78;;;5.20;99.90;;;;;;5006409;28;20033;-79
2021/12/13 03:46:27;;;;;;;17.75;9.52;;;5.30;99.90;;;;;;5005904;28;20493;-79
2021/12/13 03:48:54;;;;;;;12.00;6.80;;;5.10;99.90;;;;;;5011754;28;20498;-79
2021/12/13 03:51:26;;;;;;;15.40;6.60;;;5.10;99.90;;;;;;5005912;28;20022;-79
2021/12/13 03:53:55;;;;;;;11.52;6.38;;;5.10;99.90;;;;;;5011613;28;20026;-79
2021/12/13 03:56:30;;;;;;;12.05;6.10;;;5.20;99.90;;;;;;5011083;28;20566;-79
2021/12/13 03:59:01;;;;;;;10.98;5.53;;;5.30;99.90;;;;;;5013088;28;20411;-80
2021/12/13 04:01:41;;;;;;;11.43;5.88;;;5.20;99.90;;;;;;5013360;28;20502;-79
2021/12/13 04:04:15;;;;;;;17.20;5.40;;;5.00;99.90;;;;;;5013447;28;20029;-79
2021/12/13 04:06:48;;;;;;;10.35;4.93;;;5.10;99.90;;;;;;5013712;28;20014;-79
2021/12/13 04:09:14;;;;;;;12.50;5.53;;;5.20;99.90;;;;;;5013459;28;20090;-79
2021/12/13 04:11:43;;;;;;;10.55;5.20;;;5.20;99.90;;;;;;5011875;28;20101;-79
2021/12/13 04:14:16;;;;;;;12.57;6.32;;;5.20;99.90;;;;;;5011159;28;20379;-79
2021/12/13 04:17:05;;;;;;;14.50;6.60;;;5.10;99.90;;;;;;5013274;28;20026;-79
2021/12/13 04:19:48;;;;;;;14.00;6.68;;;5.00;99.90;;;;;;5009687;28;20041;-79
2021/12/13 04:22:18;;;;;;;17.30;7.22;;;4.80;99.90;;;;;;5013666;28;20030;-79
2021/12/13 04:24:49;;;;;;;15.27;6.13;;;4.80;99.90;;;;;;5013511;28;20033;-79
2021/12/13 04:27:31;;;;;;;11.70;5.60;;;4.90;99.90;;;;;;5013621;28;20492;-79
2021/12/13 04:30:07;;;;;;;13.77;5.30;;;4.90;99.90;;;;;;5013570;28;20048;-78
2021/12/13 04:32:36;;;;;;;12.45;5.43;;;4.90;99.90;;;;;;4999102;28;20383;-79
2021/12/13 04:35:06;;;;;;;8.35;4.43;;;4.80;99.90;;;;;;5005704;28;20027;-78
2021/12/13 04:37:42;;;;;;;11.25;5.18;;;4.70;99.90;;;;;;5009053;28;20386;-79
2021/12/13 04:40:13;;;;;;;8.85;4.72;;;4.70;99.90;;;;;;5010604;28;20057;-79
2021/12/13 04:42:41;;;;;;;11.63;4.93;;;4.90;99.90;;;;;;5007973;28;20386;-79
2021/12/13 04:45:15;;;;;;;9.05;5.20;;;4.80;99.90;;;;;;5011190;28;20041;-79
2021/12/13 04:48:16;;;;;;;10.15;5.45;;;4.70;99.90;;;;;;4999081;28;20030;-79
2021/12/13 04:50:53;;;;;;;10.75;5.38;;;4.70;99.90;;;;;;4996472;28;20041;-79
2021/12/13 04:53:25;;;;;;;10.55;5.10;;;4.80;99.90;;;;;;5007786;28;20024;-79
2021/12/13 04:55:53;;;;;;;10.25;4.57;;;4.90;99.90;;;;;;5010974;28;20034;-79
2021/12/13 04:58:20;;;;;;;11.32;5.03;;;4.90;99.90;;;;;;5014544;28;20037;-79
2021/12/13 05:00:50;;;;;;;9.40;5.35;;;4.70;99.90;;;;;;5012098;28;20152;-79
2021/12/13 05:03:19;;;;;;;8.98;4.85;;;4.70;99.90;;;;;;5009689;28;20018;-80
2021/12/13 05:05:45;;;;;;;23.23;11.55;;;4.70;99.90;;;;;;5007572;28;20038;-80
2021/12/13 05:08:14;;;;;;;37.72;21.02;;;4.80;99.90;;;;;;5009033;28;20022;-80
2021/12/13 05:10:46;;;;;;;12.45;6.72;;;4.80;99.90;;;;;;5012215;28;20324;-79
2021/12/13 05:13:24;;;;;;;13.38;5.28;;;4.80;99.90;;;;;;5014175;28;20030;-79
2021/12/13 05:15:57;;;;;;;12.35;5.20;;;4.90;99.90;;;;;;5012314;28;20490;-79
2021/12/13 05:18:31;;;;;;;11.73;5.47;;;5.00;99.90;;;;;;5009450;28;20061;-79
2021/12/13 05:21:10;;;;;;;10.77;5.40;;;5.00;99.90;;;;;;5008883;28;20076;-79
2021/12/13 05:23:47;;;;;;;9.88;4.78;;;5.10;99.90;;;;;;5006797;28;20610;-79
2021/12/13 05:26:27;;;;;;;11.80;5.18;;;5.10;99.90;;;;;;5007227;28;20399;-80
2021/12/13 05:28:53;;;;;;;11.20;5.85;;;5.00;99.90;;;;;;5009335;28;20499;-79
2021/12/13 05:31:23;;;;;;;15.68;6.50;;;5.00;99.90;;;;;;5012948;28;20068;-79
2021/12/13 05:33:56;;;;;;;12.90;6.90;;;5.00;99.90;;;;;;5010386;28;20037;-79
2021/12/13 05:36:26;;;;;;;14.48;7.45;;;5.00;99.90;;;;;;5015309;28;20401;-79
2021/12/13 05:39:06;;;;;;;11.38;6.85;;;4.90;99.90;;;;;;5007491;28;20050;-79
2021/12/13 05:41:32;;;;;;;10.65;6.32;;;4.90;99.90;;;;;;5006182;28;20026;-79
2021/12/13 05:44:10;;;;;;;12.88;6.38;;;4.90;99.90;;;;;;5009003;28;20044;-79
2021/12/13 05:46:41;;;;;;;11.35;6.93;;;5.00;99.90;;;;;;5013986;28;20049;-79
2021/12/13 05:49:26;;;;;;;17.45;8.27;;;4.90;99.90;;;;;;5017649;28;20026;-79
2021/12/13 05:52:13;;;;;;;12.50;7.88;;;4.80;99.90;;;;;;5018062;28;20033;-79
2021/12/13 05:54:45;;;;;;;13.68;7.63;;;4.40;99.90;;;;;;5017771;28;20044;-79
2021/12/13 05:57:17;;;;;;;14.35;7.32;;;4.50;99.90;;;;;;5014499;28;20105;-79
2021/12/13 06:00:04;;;;;;;12.65;7.10;;;4.40;99.90;;;;;;5011123;28;20088;-79
2021/12/13 06:02:58;;;;;;;12.57;7.85;;;4.40;99.90;;;;;;5009649;28;20029;-79
2021/12/13 06:05:44;;;;;;;11.30;7.40;;;4.40;99.90;;;;;;5008413;28;20390;-79
2021/12/13 06:08:21;;;;;;;10.82;7.15;;;4.50;99.90;;;;;;5010714;28;20391;-79
2021/12/13 06:10:52;;;;;;;14.30;9.00;;;4.50;99.90;;;;;;5013249;28;20048;-79
2021/12/13 06:13:43;;;;;;;16.88;9.68;;;4.60;99.90;;;;;;5012891;28;20101;-79
2021/12/13 06:16:35;;;;;;;18.35;10.88;;;4.60;99.90;;;;;;5013134;28;20041;-79
2021/12/13 06:19:03;;;;;;;24.35;11.52;;;4.60;99.90;;;;;;5013317;28;20037;-79
2021/12/13 06:22:00;;;;;;;18.35;10.80;;;4.70;99.90;;;;;;5015103;28;20030;-79
2021/12/13 06:24:42;;;;;;;22.23;10.02;;;4.70;99.90;;;;;;5013247;28;20517;-79
2021/12/13 06:27:22;;;;;;;18.85;10.93;;;4.70;99.90;;;;;;5012882;28;20021;-79
2021/12/13 06:29:53;;;;;;;17.98;10.52;;;4.70;99.90;;;;;;5002943;28;20400;-80
2021/12/13 06:32:30;;;;;;;20.63;11.50;;;4.70;99.90;;;;;;5008396;28;20025;-80
2021/12/13 06:34:59;;;;;;;17.30;10.88;;;4.70;99.90;;;;;;5007420;28;20023;-80
2021/12/13 06:37:35;;;;;;;16.52;10.25;;;4.70;99.90;;;;;;5009814;28;20390;-80
2021/12/13 06:40:19;;;;;;;15.65;10.30;;;4.60;99.90;;;;;;5008753;28;20037;-80
2021/12/13 06:42:45;;;;;;;17.88;10.30;;;4.50;99.90;;;;;;5005638;28;20030;-80
2021/12/13 06:45:26;;;;;;;16.60;10.15;;;4.50;99.90;;;;;;5008404;28;20121;-79
2021/12/13 06:47:55;;;;;;;18.02;10.38;;;4.40;99.90;;;;;;5003264;28;20394;-80
2021/12/13 06:50:30;;;;;;;19.55;10.43;;;4.50;99.90;;;;;;4999748;28;20539;-80
2021/12/13 06:53:16;;;;;;;20.77;10.57;;;4.50;99.90;;;;;;5007777;28;20030;-80
2021/12/13 06:55:44;;;;;;;15.48;9.65;;;4.30;99.90;;;;;;5006803;28;20487;-78
2021/12/13 06:58:27;;;;;;;17.05;9.60;;;4.20;99.90;;;;;;5008852;28;20113;-79
2021/12/13 07:00:56;;;;;;;21.48;10.45;;;4.30;99.90;;;;;;5006486;28;20030;-79
2021/12/13 07:03:32;;;;;;;23.88;10.85;;;4.10;99.90;;;;;;5015821;28;20032;-80
2021/12/13 07:06:00;;;;;;;18.50;10.68;;;4.10;99.90;;;;;;5014319;28;20071;-80
2021/12/13 07:08:33;;;;;;;16.80;11.07;;;4.00;99.90;;;;;;5010341;28;20026;-80
2021/12/13 07:11:05;;;;;;;19.23;10.73;;;4.00;99.90;;;;;;5013013;28;20041;-79
2021/12/13 07:13:47;;;;;;;18.52;11.45;;;3.80;99.90;;;;;;5012065;28;20485;-79
2021/12/13 07:16:28;;;;;;;21.25;11.30;;;3.80;99.90;;;;;;5013528;28;20140;-80
2021/12/13 07:19:20;;;;;;;21.90;11.80;;;3.90;99.90;;;;;;5013288;28;20038;-80
2021/12/13 07:21:55;;;;;;;23.70;11.38;;;3.90;99.90;;;;;;5012460;28;20495;-80
2021/12/13 07:24:33;;;;;;;26.90;12.23;;;4.00;99.90;;;;;;5015684;28;20039;-79
2021/12/13 07:27:06;;;;;;;19.08;11.90;;;4.00;99.90;;;;;;5013196;28;20041;-79
2021/12/13 07:29:40;;;;;;;22.45;12.75;;;4.10;99.90;;;;;;5009796;28;20030;-79
2021/12/13 07:32:14;;;;;;;24.27;12.48;;;4.10;99.90;;;;;;5012833;28;20026;-80
2021/12/13 07:35:10;;;;;;;20.27;10.40;;;4.20;99.90;;;;;;5013253;28;20045;-80
2021/12/13 07:37:39;;;;;;;17.45;9.77;;;4.10;99.90;;;;;;5013018;28;20034;-79
2021/12/13 07:40:22;;;;;;;16.00;9.00;;;4.20;99.90;;;;;;5010477;28;20041;-80
2021/12/13 07:43:05;;;;;;;20.35;10.40;;;4.30;99.90;;;;;;5005013;28;20548;-80
2021/12/13 07:45:56;;;;;;;19.25;10.50;;;4.30;99.90;;;;;;5006148;28;20040;-80
2021/12/13 07:48:30;;;;;;;20.88;10.65;;;4.30;99.90;;;;;;5011746;28;20083;-80
2021/12/13 07:50:59;;;;;;;21.00;11.15;;;4.50;99.90;;;;;;5004417;28;20037;-80
2021/12/13 07:53:28;;;;;;;21.55;10.73;;;4.60;99.90;;;;;;5002625;28;20022;-80
2021/12/13 07:55:54;;;;;;;21.10;9.90;;;4.80;99.90;;;;;;5009289;28;20050;-80
2021/12/13 07:58:47;;;;;;;18.90;10.00;;;4.90;99.90;;;;;;5009019;28;20040;-80
2021/12/13 08:01:16;;;;;;;22.50;9.68;;;4.90;99.90;;;;;;5007223;28;20072;-79
2021/12/13 08:04:15;;;;;;;17.95;9.25;;;5.10;99.90;;;;;;5003908;28;20030;-80
2021/12/13 08:06:50;;;;;;;17.52;8.88;;;5.20;99.90;;;;;;5005141;28;20028;-80
2021/12/13 08:09:21;;;;;;;18.60;9.68;;;5.40;99.90;;;;;;5007100;28;20363;-80
2021/12/13 08:11:56;;;;;;;15.68;8.90;;;5.50;99.90;;;;;;5002441;28;20030;-79
2021/12/13 08:14:35;;;;;;;16.45;8.70;;;5.70;99.90;;;;;;5007413;28;20502;-79
2021/12/13 08:17:23;;;;;;;17.75;8.27;;;6.10;99.90;;;;;;5013135;28;20117;-79
2021/12/13 08:20:01;;;;;;;15.30;8.27;;;6.50;99.90;;;;;;5013205;28;20038;-80
2021/12/13 08:22:29;;;;;;;16.75;8.60;;;6.90;99.90;;;;;;5012253;28;20037;-80
2021/12/13 08:25:00;;;;;;;15.70;8.35;;;7.30;99.90;;;;;;5014943;28;20034;-80
2021/12/13 08:27:30;;;;;;;17.90;9.55;;;7.90;99.90;;;;;;5019359;28;20025;-81
2021/12/13 08:30:16;;;;;;;18.02;9.88;;;8.60;99.90;;;;;;5018104;28;20088;-80
2021/12/13 08:33:08;;;;;;;14.63;7.82;;;11.00;98.30;;;;;;5014287;28;20026;-80
2021/12/13 08:35:46;;;;;;;15.52;8.98;;;13.80;89.40;;;;;;5013326;28;20052;-80
2021/12/13 08:38:41;;;;;;;16.58;8.35;;;15.50;77.40;;;;;;5014535;28;20062;-80
2021/12/13 08:41:44;;;;;;;17.75;8.85;;;15.20;74.90;;;;;;5016498;28;20052;-80
2021/12/13 08:44:10;;;;;;;13.95;7.60;;;14.30;76.80;;;;;;4992158;28;20096;-73
2021/12/13 08:46:55;;;;;;;13.85;8.15;;;13.60;78.10;;;;;;4994213;28;20137;-72
2021/12/13 08:49:38;;;;;;;14.10;8.18;;;12.40;83.20;;;;;;4994188;28;20039;-73
2021/12/13 08:52:15;;;;;;;16.77;9.68;;;11.80;88.00;;;;;;4993123;28;20117;-72
2021/12/13 08:55:04;;;;;;;18.83;9.65;;;12.60;87.00;;;;;;4993479;28;20054;-72
2021/12/13 08:57:33;;;;;;;18.17;10.02;;;12.90;83.70;;;;;;4993977;28;20387;-73
2021/12/13 09:00:03;;;;;;;17.80;9.70;;;12.10;85.50;;;;;;4993194;28;20057;-72
2021/12/13 09:02:36;;;;;;;15.75;10.02;;;11.60;89.60;;;;;;4985421;28;20607;-72
2021/12/13 09:05:10;;;;;;;16.13;9.85;;;11.20;91.00;;;;;;4989920;28;20026;-72
2021/12/13 09:07:45;;;;;;;18.52;10.32;;;10.60;92.10;;;;;;4990363;28;20034;-75
2021/12/13 09:10:10;;;;;;;17.55;9.32;;;10.70;92.80;;;;;;4987438;28;20034;-74
2021/12/13 09:12:44;;;;;;;17.88;9.40;;;10.70;93.30;;;;;;4986355;28;20039;-74
2021/12/13 09:15:23;;;;;;;16.88;9.68;;;10.70;93.50;;;;;;4994722;28;20156;-74
2021/12/13 09:17:50;;;;;;;16.05;10.73;;;10.80;93.60;;;;;;4993851;28;20482;-74
2021/12/13 09:20:51;;;;;;;18.00;10.65;;;10.80;93.90;;;;;;5011437;28;20050;-74
2021/12/13 09:23:25;;;;;;;19.48;10.93;;;10.90;94.00;;;;;;5004811;28;20380;-75
2021/12/13 09:25:53;;;;;;;;;;;11.00;93.90;;;;;;5015131;28;20033;-74
2021/12/13 09:28:27;;;;;;;21.73;11.20;;;11.10;93.90;;;;;;5012641;28;19909;-74
2021/12/13 09:31:08;;;;;;;18.38;12.82;;;11.40;93.60;;;;;;5009781;28;20524;-74
2021/12/13 09:33:37;;;;;;;23.13;15.20;;;11.50;93.00;;;;;;5009937;28;20564;-74
2021/12/13 09:36:11;;;;;;;19.23;13.07;;;11.60;92.90;;;;;;5006600;28;20426;-74
2021/12/13 09:38:44;;;;;;;22.00;15.15;;;11.60;93.00;;;;;;5003150;28;20042;-74
2021/12/13 09:41:32;;;;;;;23.17;16.65;;;11.70;92.70;;;;;;5011235;28;20038;-74
2021/12/13 09:44:14;;;;;;;19.73;14.32;;;11.50;92.80;;;;;;5015993;28;20475;-75
2021/12/13 09:46:57;;;;;;;17.98;13.18;;;11.80;92.70;;;;;;5017229;28;20046;-74
2021/12/13 09:49:37;;;;;;;20.45;12.10;;;12.00;92.40;;;;;;5012517;28;20137;-74
2021/12/13 09:52:18;;;;;;;19.67;11.32;;;12.00;92.40;;;;;;5009296;28;20025;-74
2021/12/13 09:55:06;;;;;;;15.57;8.95;;;12.10;92.10;;;;;;5003418;28;20376;-76
2021/12/13 09:57:37;;;;;;;15.40;9.18;;;12.10;91.40;;;;;;5005801;28;20026;-76
2021/12/13 10:00:13;;;;;;;16.35;8.90;;;12.10;91.60;;;;;;5004554;28;20037;-76
2021/12/13 10:02:44;;;;;;;15.15;8.10;;;12.10;91.70;;;;;;5009090;28;20510;-76
2021/12/13 10:05:14;;;;;;;13.95;8.23;;;12.10;91.20;;;;;;5008188;28;20031;-76
2021/12/13 10:07:44;;;;;;;15.07;7.95;;;12.10;91.10;;;;;;5001642;28;20506;-76
2021/12/13 10:10:16;;;;;;;14.82;8.43;;;12.10;91.40;;;;;;5001914;28;20022;-76
2021/12/13 10:12:46;;;;;;;15.70;7.50;;;12.10;91.00;;;;;;5010071;28;20038;-76
2021/12/13 10:15:25;;;;;;;15.07;8.50;;;12.20;90.70;;;;;;5005161;28;20400;-76
2021/12/13 10:17:54;;;;;;;15.48;7.97;;;12.40;90.90;;;;;;5002913;28;20498;-76
2021/12/13 10:20:26;;;;;;;12.55;8.05;;;12.50;90.30;;;;;;4999273;28;20079;-76
2021/12/13 10:22:53;;;;;;;13.60;7.38;;;12.60;89.80;;;;;;5005044;28;20407;-76
2021/12/13 10:25:31;;;;;;;11.27;6.88;;;12.60;89.20;;;;;;5010610;28;20116;-76
2021/12/13 10:27:58;;;;;;;12.48;6.85;;;12.70;89.40;;;;;;5009738;28;20036;-78
2021/12/13 10:30:31;;;;;;;12.30;7.63;;;12.60;89.10;;;;;;5005031;28;20045;-76
2021/12/13 10:32:59;;;;;;;15.18;8.02;;;12.60;88.60;;;;;;5001664;28;20083;-76
2021/12/13 10:35:32;;;;;;;16.55;7.20;;;12.70;88.10;;;;;;5000528;28;20022;-75
2021/12/13 10:38:06;;;;;;;25.85;9.13;;;12.90;87.90;;;;;;5007381;28;20026;-73
2021/12/13 10:40:36;;;;;;;19.45;6.82;;;13.00;87.40;;;;;;5009897;28;20046;-73
2021/12/13 10:43:33;;;;;;;12.73;5.30;;;12.80;87.70;;;;;;5012975;28;20037;-74
2021/12/13 10:46:04;;;;;;;10.35;5.28;;;12.90;86.70;;;;;;5010612;28;20514;-73
2021/12/13 10:48:35;;;;;;;11.38;5.80;;;13.00;86.50;;;;;;5009529;28;20466;-73
2021/12/13 10:51:18;;;;;;;10.07;5.88;;;12.90;86.30;;;;;;5013589;28;20022;-74
2021/12/13 10:53:50;;;;;;;15.18;5.95;;;12.80;86.00;;;;;;5010427;28;20117;-73
2021/12/13 10:56:21;;;;;;;10.60;5.90;;;13.00;85.70;;;;;;5014408;28;20089;-74
2021/12/13 10:58:50;;;;;;;9.63;5.28;;;13.00;85.50;;;;;;5015671;28;20034;-74
2021/12/13 11:01:19;;;;;;;10.15;5.47;;;13.10;84.60;;;;;;5007407;28;20032;-74
2021/12/13 11:03:48;;;;;;;12.30;6.18;;;13.30;83.60;;;;;;5015129;28;20022;-74
2021/12/13 11:06:15;;;;;;;11.40;5.97;;;13.40;83.70;;;;;;5015249;28;20481;-74
2021/12/13 11:08:42;;;;;;;11.02;5.63;;;13.50;83.30;;;;;;5012202;28;20502;-74
2021/12/13 11:11:28;;;;;;;11.90;5.60;;;13.60;82.60;;;;;;5014678;28;20060;-74
2021/12/13 11:13:58;;;;;;;12.02;6.03;;;13.80;82.30;;;;;;5015521;28;20068;-74
2021/12/13 11:16:29;;;;;;;11.70;5.22;;;13.90;82.00;;;;;;5016165;28;20046;-73
2021/12/13 11:18:56;;;;;;;10.10;5.65;;;14.00;80.50;;;;;;5014167;28;20040;-74
2021/12/13 11:21:32;;;;;;;8.68;5.38;;;14.00;80.90;;;;;;5015659;28;20025;-74
2021/12/13 11:23:58;;;;;;;11.73;6.43;;;14.00;79.80;;;;;;5013564;28;20048;-73
2021/12/13 11:26:29;;;;;;;10.90;5.20;;;14.10;80.70;;;;;;5013645;28;20030;-73
2021/12/13 11:28:56;;;;;;;8.85;5.20;;;14.10;79.10;;;;;;5007213;28;20084;-74
2021/12/13 11:32:05;;;;;;;11.98;5.60;;;14.10;78.60;;;;;;5009385;28;20148;-74
2021/12/13 11:34:58;;;;;;;9.90;5.80;;;14.20;79.00;;;;;;5004413;28;20368;-73
2021/12/13 11:37:56;;;;;;;9.60;4.80;;;14.40;77.20;;;;;;5007681;28;20034;-74
2021/12/13 11:41:00;;;;;;;10.23;5.38;;;14.50;76.40;;;;;;5015242;28;20533;-74
2021/12/13 11:43:44;;;;;;;10.20;4.88;;;14.50;77.10;;;;;;4960278;28;20135;-74
2021/12/13 11:46:34;;;;;;;10.55;5.68;;;14.60;75.60;;;;;;4964978;28;20066;-74
2021/12/13 11:49:11;;;;;;;10.85;5.40;;;14.80;76.20;;;;;;4965234;28;20026;-74
2021/12/13 11:51:58;;;;;;;12.23;6.15;;;14.90;75.00;;;;;;4965261;28;20043;-75
2021/12/13 11:55:00;;;;;;;12.68;5.38;;;15.00;75.50;;;;;;4958485;28;20520;-75
2021/12/13 11:57:46;;;;;;;9.43;4.90;;;15.20;72.90;;;;;;4958102;28;20030;-75
2021/12/13 12:00:39;;;;;;;8.60;4.65;;;15.30;73.70;;;;;;4963243;28;20058;-75
2021/12/13 12:03:41;;;;;;;10.15;5.68;;;15.30;72.40;;;;;;4965015;28;20069;-75
2021/12/13 12:06:44;;;;;;;10.18;5.88;;;15.40;72.00;;;;;;4966150;28;20027;-75
2021/12/13 12:09:54;;;;;;;9.63;5.35;;;15.50;71.60;;;;;;4965984;28;20035;-75
2021/12/13 12:12:50;;;;;;;9.80;5.13;;;15.70;70.60;;;;;;4859717;29;20555;-75
2021/12/13 12:15:17;;;;;;;10.18;5.00;;;15.70;70.00;;;;;;4866501;29;20046;-75
2021/12/13 12:17:43;;;;;;;8.95;5.68;;;16.00;70.80;;;;;;4858574;29;20041;-74
2021/12/13 12:20:14;;;;;;;9.00;4.80;;;16.10;68.50;;;;;;4872934;29;20080;-75
2021/12/13 12:22:54;;;;;;;13.52;5.13;;;16.20;67.70;;;;;;4911486;29;20036;-75
2021/12/13 12:25:24;;;;;;;8.77;4.55;;;16.30;67.90;;;;;;4915622;29;20042;-75
2021/12/13 12:27:56;;;;;;;13.60;5.60;;;16.40;66.80;;;;;;4914991;29;20032;-75
2021/12/13 12:30:28;;;;;;;9.73;5.68;;;16.60;67.50;;;;;;4914627;29;20067;-75
2021/12/13 12:32:58;;;;;;;12.85;5.72;;;16.70;67.70;;;;;;4914109;29;20504;-75
2021/12/13 12:35:43;;;;;;;14.20;5.88;;;16.70;67.50;;;;;;4913111;29;20071;-75
2021/12/13 12:38:28;;;;;;;9.57;5.68;;;16.70;67.30;;;;;;4911215;29;20525;-75
2021/12/13 12:41:06;;;;;;;9.20;5.32;;;16.80;67.00;;;;;;4911109;29;20040;-75
2021/12/13 12:43:40;;;;;;;9.30;4.85;;;16.90;66.80;;;;;;4905383;29;20127;-75
2021/12/13 12:46:13;;;;;;;8.93;5.05;;;17.10;67.00;;;;;;4913395;29;20080;-74
2021/12/13 12:48:45;;;;;;;8.13;3.80;;;17.20;66.10;;;;;;4955069;28;20030;-74
2021/12/13 12:51:17;;;;;;;8.60;4.30;;;17.40;64.60;;;;;;5004165;28;20061;-73
2021/12/13 12:54:14;;;;;;;8.35;4.35;;;17.60;63.70;;;;;;5010279;28;20034;-77
2021/12/13 12:56:50;;;;;;;9.00;4.20;;;18.10;62.00;;;;;;5007017;28;20056;-77
2021/12/13 12:59:38;;;;;;;7.68;3.50;;;18.60;60.80;;;;;;5001822;28;20042;-77
2021/12/13 13:02:10;;;;;;;7.45;4.20;;;19.60;58.60;;;;;;5000701;28;20038;-77
2021/12/13 13:04:40;;;;;;;7.75;3.80;;;22.50;54.80;;;;;;5004395;28;20545;-78
2021/12/13 13:07:13;;;;;;;8.07;3.75;;;24.80;49.10;;;;;;5005219;28;20433;-78
2021/12/13 13:09:50;;;;;;;8.02;3.67;;;26.50;46.60;;;;;;5001620;28;20149;-78
2021/12/13 13:12:28;;;;;;;6.75;3.42;;;28.00;43.20;;;;;;5008298;28;20610;-78
2021/12/13 13:15:19;;;;;;;8.52;3.33;;;29.00;41.30;;;;;;5004990;28;20030;-78
2021/12/13 13:17:51;;;;;;;7.07;3.20;;;30.20;39.90;;;;;;5018234;28;20112;-78
2021/12/13 13:20:20;;;;;;;8.15;3.90;;;30.20;39.20;;;;;;5006121;28;20053;-78
2021/12/13 13:22:49;;;;;;;6.50;3.17;;;30.20;38.60;;;;;;5006862;28;20102;-78
2021/12/13 13:25:20;;;;;;;5.93;3.15;;;30.40;38.50;;;;;;5008129;28;20030;-78
2021/12/13 13:27:46;;;;;;;6.10;3.40;;;30.60;38.00;;;;;;5011199;28;20022;-78
2021/12/13 13:30:25;;;;;;;8.45;3.75;;;30.70;37.40;;;;;;5010388;28;20060;-78
2021/12/13 13:32:51;;;;;;;7.00;3.22;;;30.70;37.20;;;;;;5007549;28;20037;-76
2021/12/13 13:35:17;;;;;;;6.72;4.05;;;29.40;37.40;;;;;;5012578;28;20022;-76
2021/12/13 13:37:45;;;;;;;6.40;3.53;;;27.10;39.40;;;;;;5012484;28;20509;-76
2021/12/13 13:40:30;;;;;;;7.00;3.60;;;25.30;41.80;;;;;;5013232;28;20490;-75
2021/12/13 13:43:02;;;;;;;8.88;3.53;;;24.80;42.70;;;;;;5013892;28;20123;-75